| time (UTC) | temp F | wind direction | speed knots | gust knots | rain 1hr in | rain 24hr in | rain mn in | humidity % | barometer mb |
| 20260503203509 | 49 | 181 | 7.8 | 17.4 | 0.00 | 0.00 | 0.00 | 82 | 1010.0 |
| 20260503202010 | 49 | 196 | 7.8 | 13.9 | 0.00 | 0.00 | 0.00 | 82 | 1010.1 |
| 20260503200510 | 49 | 0 | 7.8 | 18.2 | 0.00 | 0.00 | 0.00 | 82 | 1010.7 |
| 20260503195012 | 49 | 159 | 8.7 | 18.2 | 0.00 | 0.00 | 0.00 | 80 | 1011.4 |
| 20260503193509 | 50 | 0 | 9.6 | 18.2 | 0.00 | 0.00 | 0.00 | 78 | 1012.1 |
| 20260503192008 | 50 | 0 | 9.6 | 20.9 | 0.00 | 0.00 | 0.00 | 78 | 1012.4 |
| 20260503190509 | 51 | 249 | 11.3 | 26.1 | 0.00 | 0.00 | 0.00 | 74 | 1012.5 |
| 20260503185010 | 54 | 0 | 12.2 | 26.1 | 0.00 | 0.00 | 0.00 | 63 | 1012.4 |
| 20260503183508 | 56 | 292 | 10.4 | 26.1 | 0.00 | 0.00 | 0.00 | 59 | 1011.9 |
| 20260503182008 | 58 | 234 | 9.6 | 26.1 | 0.00 | 0.00 | 0.00 | 55 | 1011.7 |
| 20260503180508 | 58 | 0 | 11.3 | 26.1 | 0.00 | 0.00 | 0.00 | 54 | 1011.8 |
| 20260503175009 | 59 | 0 | 10.4 | 26.1 | 0.00 | 0.00 | 0.00 | 54 | 1011.6 |
| 20260503173508 | 59 | 0 | 9.6 | 26.1 | 0.00 | 0.00 | 0.00 | 52 | 1012.0 |
| 20260503172007 | 59 | 0 | 10.4 | 26.1 | 0.00 | 0.00 | 0.00 | 51 | 1012.2 |
| 20260503170504 | 59 | 0 | 8.7 | 26.1 | 0.00 | 0.00 | 0.00 | 53 | 1012.4 |
| 20260503150505 | 56 | 0 | 7.8 | 26.1 | 0.00 | 0.00 | 0.00 | 54 | 1013.8 |
| 20260503130504 | 49 | 233 | 7.0 | 13.0 | 0.00 | 0.00 | 0.00 | 60 | 1014.4 |
| 20260503110502 | 42 | 0 | 4.3 | 7.8 | 0.00 | 0.00 | 0.00 | 68 | 1014.1 |
| 20260503090503 | 41 | 0 | 2.6 | 7.0 | 0.00 | 0.00 | 0.00 | 70 | 1014.2 |
| 20260503080502 | 41 | 0 | 3.5 | 6.1 | 0.00 | 0.00 | 0.00 | 70 | 1014.3 |
| 20260503072001 | 41 | 0 | 3.5 | 6.1 | 0.00 | 0.00 | 0.00 | 69 | 1014.4 |
| 20260503070503 | 42 | 0 | 3.5 | 7.8 | 0.00 | 0.00 | 0.00 | 68 | 1014.5 |
| 20260503055002 | 41 | 184 | 0.0 | 0.0 | 0.00 | 0.00 | 0.00 | 69 | 1015.2 |
| 20260503053501 | 41 | 175 | 0.0 | 0.0 | 0.00 | 0.00 | 0.00 | 70 | 1015.3 |
| 20260503052000 | 41 | 175 | 0.0 | 0.0 | 0.00 | 0.00 | 0.00 | 70 | 1015.4 |
| 20260503050502 | 41 | 175 | 0.0 | 0.0 | 0.00 | 0.00 | 0.00 | 70 | 1015.5 |
| 20260503045002 | 41 | 175 | 0.0 | 0.0 | 0.00 | 0.00 | 0.00 | 71 | 1015.5 |
| 20260503043502 | 41 | 0 | 0.0 | 0.0 | 0.00 | 0.00 | 0.00 | 71 | 1015.5 |
| 20260503042002 | 41 | 185 | 0.0 | 0.0 | 0.00 | 0.00 | 0.00 | 72 | 1015.5 |
| 20260503040501 | 41 | 0 | 0.0 | 0.0 | 0.00 | 0.00 | 0.00 | 74 | 1015.7 |
| 20260503035000 | 41 | 0 | 0.0 | 0.0 | 0.00 | 0.00 | 0.00 | 74 | 1015.7 |
| 20260503033501 | 41 | 0 | 0.0 | 0.0 | 0.00 | 0.00 | 0.00 | 73 | 1015.7 |
| 20260503032004 | 41 | 0 | 0.0 | 0.0 | 0.00 | 0.00 | 0.00 | 70 | 1015.8 |
| 20260503030501 | 42 | 262 | 0.0 | 0.0 | 0.00 | 0.00 | 0.00 | 66 | 1015.9 |
| 20260503025001 | 42 | 262 | 0.0 | 0.0 | 0.00 | 0.00 | 0.00 | 65 | 1015.9 |
| 20260503023501 | 42 | 262 | 0.0 | 0.0 | 0.00 | 0.00 | 0.00 | 66 | 1015.8 |
| 20260503021959 | 43 | 0 | 0.0 | 0.0 | 0.00 | 0.00 | 0.00 | 65 | 1015.9 |
| 20260503020457 | 43 | 317 | 0.0 | 0.0 | 0.00 | 0.00 | 0.00 | 62 | 1015.8 |
| 20260503014958 | 44 | 317 | 0.0 | 0.0 | 0.00 | 0.00 | 0.00 | 62 | 1015.8 |
| 20260503013453 | 44 | 316 | 0.0 | 0.0 | 0.00 | 0.00 | 0.00 | 59 | 1015.6 |
| 20260503011955 | 46 | 319 | 0.0 | 0.0 | 0.00 | 0.00 | 0.00 | 56 | 1015.7 |
| 20260503010451 | 47 | 318 | 0.0 | 0.0 | 0.00 | 0.00 | 0.00 | 53 | 1015.7 |
| 20260503004951 | 48 | 0 | 0.0 | 0.0 | 0.00 | 0.00 | 0.00 | 49 | 1015.7 |
| 20260503003451 | 49 | 319 | 0.0 | 0.0 | 0.00 | 0.00 | 0.00 | 48 | 1015.7 |
| 20260503001950 | 50 | 318 | 0.9 | 5.2 | 0.00 | 0.00 | 0.00 | 47 | 1015.7 |
| 20260503000443 | 50 | 313 | 0.9 | 5.2 | 0.00 | 0.00 | 0.00 | 45 | 1015.7 |
| 20260502234943 | 51 | 335 | 2.6 | 15.6 | 0.00 | 0.00 | 0.00 | 42 | 1015.7 |
| 20260502233444 | 52 | 280 | 1.7 | 15.6 | 0.00 | 0.00 | 0.00 | 42 | 1015.8 |
| 20260502231942 | 52 | 315 | 2.6 | 15.6 | 0.00 | 0.00 | 0.00 | 41 | 1015.8 |
| 20260502230444 | 53 | 314 | 1.7 | 15.6 | 0.00 | 0.00 | 0.00 | 39 | 1015.9 |
| 20260502224943 | 52 | 0 | 3.5 | 15.6 | 0.00 | 0.00 | 0.00 | 40 | 1016.1 |
| 20260502223443 | 51 | 333 | 4.3 | 15.6 | 0.00 | 0.00 | 0.00 | 41 | 1016.1 |
| 20260502221943 | 52 | 0 | 4.3 | 15.6 | 0.00 | 0.00 | 0.00 | 39 | 1016.2 |
| 20260502220443 | 52 | 0 | 4.3 | 15.6 | 0.00 | 0.00 | 0.00 | 39 | 1016.1 |
| 20260502214943 | 53 | 322 | 4.3 | 15.6 | 0.00 | 0.00 | 0.00 | 41 | 1016.1 |
| 20260502213443 | 53 | 275 | 3.5 | 15.6 | 0.00 | 0.00 | 0.00 | 38 | 1016.0 |
| 20260502211944 | 52 | 336 | 4.3 | 15.6 | 0.00 | 0.00 | 0.00 | 40 | 1016.1 |
| 20260502210443 | 52 | 351 | 5.2 | 15.6 | 0.00 | 0.00 | 0.00 | 37 | 1016.1 |
| 20260502204943 | 51 | 0 | 5.2 | 15.6 | 0.00 | 0.00 | 0.00 | 40 | 1016.3 |